Time;durP1;ratioP1;P1;durP2;ratioP2;P2;SDS_P1;SDS_P2;PMS_P1;PMS_P2;Temp;Humidity;BMP_temperature;BMP_pressure;BME280_temperature;BME280_humidity;BME280_pressure;Samples;Min_cycle;Max_cycle;Signal;HPM_P1;HPM_P2
2022/05/09 03:57:01;;;;;;;9.50;8.05;;;13.20;83.30;;;;;;5028067;28;20045;-89
2022/05/09 03:59:26;;;;;;;10.48;7.70;;;13.20;83.30;;;;;;5008176;28;20022;-89
2022/05/09 04:01:52;;;;;;;8.65;7.65;;;13.10;83.50;;;;;;5010251;28;20508;-89
2022/05/09 04:04:17;;;;;;;8.77;7.88;;;13.10;83.70;;;;;;5000392;28;20026;-89
2022/05/09 04:06:44;;;;;;;9.63;8.05;;;13.10;83.80;;;;;;4994638;28;20018;-89
2022/05/09 04:09:09;;;;;;;9.35;8.15;;;13.10;84.00;;;;;;4980237;28;20027;-89
2022/05/09 04:11:35;;;;;;;9.40;7.82;;;13.10;84.00;;;;;;4973306;28;20058;-89
2022/05/09 04:14:01;;;;;;;10.38;7.45;;;13.10;84.00;;;;;;4955434;28;20023;-89
2022/05/09 04:19:11;;;;;;;8.68;7.70;;;13.10;84.20;;;;;;4974688;28;20041;-89
2022/05/09 04:21:36;;;;;;;10.50;8.35;;;13.10;84.20;;;;;;4956740;28;20029;-89
2022/05/09 04:24:02;;;;;;;8.57;7.75;;;13.10;84.30;;;;;;4955746;28;20019;-89
2022/05/09 04:26:31;;;;;;;10.43;7.75;;;13.10;84.40;;;;;;4955967;28;20387;-89
2022/05/09 04:28:57;;;;;;;10.00;8.23;;;13.10;84.40;;;;;;4961231;28;20030;-89
2022/05/09 04:31:23;;;;;;;9.65;8.10;;;13.10;84.50;;;;;;4984070;28;20046;-89
2022/05/09 04:33:49;;;;;;;9.35;7.75;;;13.10;84.60;;;;;;4998381;28;20057;-89
2022/05/09 04:36:15;;;;;;;8.18;7.32;;;13.10;84.80;;;;;;4998351;28;20463;-89
2022/05/09 04:38:43;;;;;;;11.52;8.25;;;13.10;84.90;;;;;;4998146;28;20097;-89
2022/05/09 04:41:10;;;;;;;8.77;7.88;;;13.10;85.00;;;;;;4998462;28;20076;-89
2022/05/09 04:43:37;;;;;;;10.80;8.63;;;13.20;85.10;;;;;;4987159;28;20397;-89
2022/05/09 04:46:03;;;;;;;12.45;9.30;;;13.20;85.20;;;;;;4997997;28;20030;-88
2022/05/09 04:48:29;;;;;;;10.95;8.93;;;13.30;85.80;;;;;;4997488;28;20117;-89
2022/05/09 04:50:55;;;;;;;9.43;7.63;;;13.30;85.40;;;;;;5007426;28;20053;-89
2022/05/09 04:53:21;;;;;;;9.50;8.30;;;13.40;85.40;;;;;;5007405;28;20014;-91
2022/05/09 04:55:47;;;;;;;8.43;7.10;;;13.50;85.50;;;;;;4983404;28;20034;-89
2022/05/09 04:58:15;;;;;;;8.82;7.93;;;13.70;85.50;;;;;;4978595;28;20125;-89
2022/05/09 05:00:41;;;;;;;8.98;7.55;;;13.70;85.40;;;;;;4978246;28;20019;-89
2022/05/09 05:03:07;;;;;;;9.13;7.25;;;13.80;85.40;;;;;;4973697;28;20039;-89
2022/05/09 05:05:33;;;;;;;11.93;7.95;;;13.90;85.50;;;;;;4974293;28;20122;-89
2022/05/09 05:08:00;;;;;;;9.20;8.00;;;14.00;85.50;;;;;;4974588;28;20031;-89
2022/05/09 05:10:30;;;;;;;8.75;7.35;;;14.10;85.50;;;;;;4990747;28;20058;-89
2022/05/09 05:12:57;;;;;;;8.77;7.88;;;14.20;85.40;;;;;;4978020;28;20033;-89
2022/05/09 05:15:23;;;;;;;8.85;7.95;;;14.30;85.30;;;;;;4986102;28;20049;-89
2022/05/09 05:17:48;;;;;;;8.02;7.22;;;14.40;85.30;;;;;;4988336;28;20030;-89
2022/05/09 05:20:15;;;;;;;10.27;7.20;;;14.50;85.20;;;;;;4988579;28;20029;-89
2022/05/09 05:22:43;;;;;;;10.20;7.63;;;14.60;85.20;;;;;;4986375;28;20109;-89
2022/05/09 05:25:11;;;;;;;10.07;7.65;;;14.70;85.30;;;;;;4995148;28;20026;-89
2022/05/09 05:27:36;;;;;;;9.23;7.57;;;14.80;85.30;;;;;;4983326;28;20023;-90
2022/05/09 05:30:04;;;;;;;9.27;7.13;;;14.90;85.30;;;;;;4976739;28;20026;-89
2022/05/09 05:32:34;;;;;;;9.05;7.20;;;14.90;85.20;;;;;;4962470;28;20454;-89
2022/05/09 05:35:00;;;;;;;8.02;7.22;;;15.00;85.20;;;;;;4988706;28;20032;-90
2022/05/09 05:37:26;;;;;;;9.40;7.30;;;15.00;85.20;;;;;;4996802;28;20026;-89
2022/05/09 05:39:52;;;;;;;8.20;7.35;;;15.10;85.30;;;;;;4996092;28;20053;-89
2022/05/09 05:42:18;;;;;;;8.73;6.40;;;15.10;85.30;;;;;;4994826;28;20025;-89
2022/05/09 05:44:47;;;;;;;7.55;6.80;;;15.10;85.40;;;;;;4998003;28;20033;-89
2022/05/09 05:47:14;;;;;;;10.07;7.07;;;15.10;85.50;;;;;;4996786;28;20030;-89
2022/05/09 05:49:41;;;;;;;9.45;7.30;;;15.20;85.60;;;;;;4996740;28;20505;-89
2022/05/09 05:52:08;;;;;;;8.80;7.40;;;15.20;85.70;;;;;;4980583;28;20037;-89
2022/05/09 05:54:40;;;;;;;8.40;7.15;;;15.30;85.80;;;;;;4978250;28;20026;-89
2022/05/09 05:57:07;;;;;;;8.23;7.30;;;15.30;85.90;;;;;;4996148;28;20130;-90
2022/05/09 05:59:33;;;;;;;8.45;7.22;;;15.40;85.80;;;;;;4995488;28;20074;-89
2022/05/09 06:01:59;;;;;;;8.95;7.00;;;15.40;86.00;;;;;;4995061;28;20495;-89
2022/05/09 06:04:25;;;;;;;9.60;6.63;;;15.50;86.10;;;;;;4993872;28;20030;-90
2022/05/09 06:06:51;;;;;;;10.07;7.00;;;15.50;86.00;;;;;;4990435;28;20023;-89
2022/05/09 06:09:17;;;;;;;8.50;7.28;;;15.50;86.00;;;;;;4960063;28;20150;-89
2022/05/09 06:11:43;;;;;;;10.30;6.72;;;15.60;86.10;;;;;;4960022;28;20118;-89
2022/05/09 06:14:10;;;;;;;9.07;6.80;;;15.60;86.10;;;;;;4983058;28;20030;-89
2022/05/09 06:16:36;;;;;;;7.45;6.55;;;15.70;86.00;;;;;;5004216;28;20363;-89
2022/05/09 06:19:04;;;;;;;8.57;7.00;;;15.70;85.90;;;;;;4995591;28;20528;-90
2022/05/09 06:21:33;;;;;;;10.32;7.32;;;15.70;86.10;;;;;;4992629;28;20026;-90
2022/05/09 06:24:00;;;;;;;9.10;6.50;;;15.80;86.40;;;;;;4993085;28;20029;-89
2022/05/09 06:26:27;;;;;;;7.07;6.35;;;15.90;86.30;;;;;;4976085;28;20041;-89
2022/05/09 06:28:53;;;;;;;13.80;7.18;;;16.00;86.10;;;;;;4960093;28;20122;-90
2022/05/09 06:31:19;;;;;;;12.10;6.88;;;16.00;85.90;;;;;;4975679;28;20482;-89
2022/05/09 06:33:44;;;;;;;8.88;6.53;;;16.00;85.90;;;;;;4969772;28;20035;-89
2022/05/09 06:36:10;;;;;;;7.88;6.45;;;16.10;85.90;;;;;;4972564;28;20030;-89
2022/05/09 06:38:35;;;;;;;7.88;6.70;;;16.10;85.90;;;;;;4974703;28;20031;-89
2022/05/09 06:41:01;;;;;;;9.18;6.90;;;16.20;86.00;;;;;;4973352;28;20023;-89
2022/05/09 06:43:28;;;;;;;8.80;7.00;;;16.30;85.90;;;;;;4972624;28;20077;-89
2022/05/09 06:45:53;;;;;;;9.15;6.80;;;16.40;85.70;;;;;;4978358;28;20022;-89
2022/05/09 06:48:19;;;;;;;9.68;6.47;;;16.60;85.60;;;;;;4975302;28;20097;-89
2022/05/09 06:50:45;;;;;;;7.50;6.45;;;16.70;85.60;;;;;;4977031;28;20042;-89
2022/05/09 06:53:12;;;;;;;9.50;7.10;;;16.70;85.50;;;;;;4976596;28;20086;-89
2022/05/09 06:55:38;;;;;;;8.32;6.55;;;16.90;85.80;;;;;;4976237;28;20513;-89
2022/05/09 06:58:09;;;;;;;9.32;6.80;;;17.00;85.20;;;;;;4976394;28;20124;-88
2022/05/09 07:00:35;;;;;;;10.90;6.60;;;17.10;85.00;;;;;;4975155;28;20372;-89
2022/05/09 07:03:01;;;;;;;9.85;6.47;;;17.20;85.00;;;;;;4993320;28;20026;-89
2022/05/09 07:05:27;;;;;;;8.10;6.53;;;17.40;84.60;;;;;;4975617;28;20018;-89
2022/05/09 07:07:53;;;;;;;8.25;6.43;;;17.50;84.40;;;;;;4976823;28;20034;-88
2022/05/09 07:10:19;;;;;;;7.72;6.35;;;17.70;84.00;;;;;;4976222;28;20261;-89
2022/05/09 07:12:50;;;;;;;7.93;6.80;;;17.90;84.00;;;;;;4976944;28;20028;-89
2022/05/09 07:15:19;;;;;;;9.40;6.43;;;18.10;83.70;;;;;;4974901;28;20507;-89
2022/05/09 07:17:45;;;;;;;8.48;6.57;;;18.40;83.30;;;;;;4973540;28;20019;-89
2022/05/09 07:20:12;;;;;;;8.80;6.25;;;18.70;83.00;;;;;;4980842;28;20030;-89
2022/05/09 07:22:38;;;;;;;9.93;5.85;;;19.00;82.50;;;;;;4995119;28;20119;-89
2022/05/09 07:25:04;;;;;;;8.65;5.65;;;19.30;82.20;;;;;;4999460;28;20072;-89
2022/05/09 07:27:31;;;;;;;6.43;5.35;;;19.60;81.90;;;;;;4984782;28;20069;-88
2022/05/09 07:29:57;;;;;;;5.90;5.15;;;19.80;81.50;;;;;;4995411;28;20075;-89
2022/05/09 07:32:23;;;;;;;8.18;5.40;;;20.20;81.00;;;;;;4994422;28;20022;-88
2022/05/09 07:34:49;;;;;;;9.52;5.40;;;20.50;80.50;;;;;;4974831;28;20022;-88
2022/05/09 07:37:15;;;;;;;6.95;4.88;;;20.80;80.20;;;;;;4975241;28;20049;-88
2022/05/09 07:39:41;;;;;;;5.63;5.10;;;21.10;79.50;;;;;;4956438;28;20051;-88
2022/05/09 07:42:08;;;;;;;6.95;5.25;;;21.40;78.80;;;;;;4956721;28;20027;-89
2022/05/09 07:44:33;;;;;;;5.50;4.95;;;21.70;78.00;;;;;;4956049;28;20454;-88
2022/05/09 07:46:59;;;;;;;9.35;5.30;;;22.00;77.40;;;;;;4955823;28;20030;-89
2022/05/09 07:49:25;;;;;;;5.57;4.97;;;22.20;76.90;;;;;;4956279;28;20443;-88
2022/05/09 07:51:50;;;;;;;7.10;5.25;;;22.50;75.50;;;;;;4956749;28;20027;-88
2022/05/09 07:54:16;;;;;;;8.38;5.18;;;22.70;75.50;;;;;;4974901;28;20399;-89
2022/05/09 07:56:43;;;;;;;4.85;4.30;;;23.00;75.50;;;;;;4974352;28;20034;-90
2022/05/09 07:59:09;;;;;;;6.95;4.57;;;23.20;74.30;;;;;;4975261;28;20041;-90
2022/05/09 08:01:35;;;;;;;9.57;4.80;;;23.40;73.90;;;;;;4975966;28;20061;-90
2022/05/09 08:04:01;;;;;;;8.85;4.60;;;23.70;73.10;;;;;;4979454;28;20026;-89
2022/05/09 08:06:27;;;;;;;4.47;3.92;;;24.00;72.40;;;;;;4979993;28;20170;-89
2022/05/09 08:08:52;;;;;;;6.05;4.47;;;24.10;71.70;;;;;;4978665;28;20030;-89
2022/05/09 08:11:18;;;;;;;6.05;4.40;;;24.40;71.30;;;;;;4979871;28;20076;-89
2022/05/09 08:13:45;;;;;;;4.82;4.30;;;24.60;70.20;;;;;;4962661;28;20039;-88
2022/05/09 08:16:11;;;;;;;4.50;4.00;;;24.90;69.30;;;;;;4961929;28;20483;-89
2022/05/09 08:18:38;;;;;;;7.93;4.28;;;25.10;68.70;;;;;;4992707;28;20164;-89
2022/05/09 08:21:04;;;;;;;4.22;3.85;;;25.30;68.10;;;;;;5004867;28;20027;-89
2022/05/09 08:23:31;;;;;;;5.57;4.15;;;25.40;67.60;;;;;;4986857;28;20030;-88
2022/05/09 08:25:58;;;;;;;5.07;4.20;;;25.50;67.00;;;;;;4981236;28;20022;-89
2022/05/09 08:28:24;;;;;;;6.00;4.13;;;25.70;66.80;;;;;;4981773;28;20093;-89
2022/05/09 08:30:51;;;;;;;5.97;5.22;;;26.00;66.40;;;;;;4978234;28;20027;-88
2022/05/09 08:33:20;;;;;;;4.50;3.97;;;26.20;65.80;;;;;;4980958;28;20030;-89
2022/05/09 08:35:48;;;;;;;4.22;3.60;;;26.40;65.10;;;;;;4961580;28;20030;-89
2022/05/09 08:38:14;;;;;;;4.90;4.40;;;26.60;64.80;;;;;;4968462;28;20059;-88
2022/05/09 08:40:49;;;;;;;6.45;4.78;;;26.80;64.30;;;;;;4961811;28;20030;-89
2022/05/09 08:43:24;;;;;;;5.95;3.97;;;27.00;63.10;;;;;;4978084;28;20022;-89
2022/05/09 08:46:18;;;;;;;10.15;4.38;;;27.30;62.70;;;;;;4977738;28;20038;-89
2022/05/09 08:49:08;;;;;;;6.57;4.38;;;27.40;62.00;;;;;;4979223;28;20069;-89
2022/05/09 08:51:47;;;;;;;4.53;3.88;;;27.50;61.80;;;;;;4982329;28;20022;-88
2022/05/09 08:54:19;;;;;;;4.93;4.43;;;27.70;61.50;;;;;;4992678;28;20054;-90
2022/05/09 08:56:47;;;;;;;8.10;4.13;;;27.90;60.70;;;;;;5001045;28;20124;-89
2022/05/09 08:59:17;;;;;;;10.15;3.75;;;28.00;59.70;;;;;;5001927;28;20026;-89
2022/05/09 09:01:53;;;;;;;10.23;6.95;;;28.20;59.80;;;;;;5001562;28;20419;-89
2022/05/09 09:04:25;;;;;;;4.82;4.00;;;28.50;59.20;;;;;;4961675;28;20022;-89
2022/05/09 09:07:25;;;;;;;7.43;4.43;;;28.80;58.80;;;;;;4980693;28;20019;-89
2022/05/09 09:09:56;;;;;;;4.28;3.70;;;29.10;58.00;;;;;;4978509;28;20034;-89
2022/05/09 09:12:41;;;;;;;4.03;3.70;;;29.20;57.10;;;;;;4981614;28;20022;-90
2022/05/09 09:15:22;;;;;;;7.03;3.80;;;29.40;57.10;;;;;;4995230;28;20179;-89
2022/05/09 09:18:04;;;;;;;5.65;3.92;;;29.90;56.20;;;;;;4995064;28;20030;-90
2022/05/09 09:20:33;;;;;;;4.00;3.55;;;30.30;55.00;;;;;;4993891;28;20085;-89
2022/05/09 09:23:07;;;;;;;4.30;3.90;;;30.80;54.00;;;;;;4983031;28;20018;-89
2022/05/09 09:25:59;;;;;;;4.18;3.78;;;31.20;52.50;;;;;;4977063;28;20379;-90
2022/05/09 09:28:28;;;;;;;;;;;31.60;51.50;;;;;;4995481;28;20414;-90
2022/05/09 09:30:55;;;;;;;4.25;3.80;;;32.20;53.10;;;;;;4994890;28;20004;-89
2022/05/09 09:33:21;;;;;;;4.63;4.22;;;32.90;50.90;;;;;;4977836;28;20026;-89
2022/05/09 09:36:05;;;;;;;6.05;4.60;;;33.30;49.80;;;;;;4977795;28;20034;-89
2022/05/09 09:38:46;;;;;;;4.75;3.95;;;33.70;49.00;;;;;;4977954;28;20026;-89
2022/05/09 09:41:33;;;;;;;4.90;3.90;;;34.20;47.70;;;;;;4994406;28;20116;-87
2022/05/09 09:44:21;;;;;;;7.25;4.35;;;34.90;47.90;;;;;;4979817;28;20064;-88
2022/05/09 09:47:07;;;;;;;5.72;3.88;;;34.40;46.70;;;;;;5001351;28;20010;-90
2022/05/09 09:49:36;;;;;;;4.50;4.03;;;34.70;46.70;;;;;;4990074;28;20476;-89
2022/05/09 09:52:04;;;;;;;4.72;3.92;;;35.30;45.60;;;;;;4999503;28;20440;-89
2022/05/09 17:07:55;;;;;;;4.65;2.35;;;23.10;53.70;;;;;;4985662;28;20038;-88
2022/05/09 17:11:12;;;;;;;2.80;2.33;;;23.00;53.70;;;;;;4966298;28;20054;-87
2022/05/09 17:14:20;;;;;;;3.75;2.70;;;23.00;53.90;;;;;;4947816;28;20639;-87
2022/05/09 17:17:46;;;;;;;6.18;2.47;;;23.00;54.10;;;;;;4920680;29;20502;-87
2022/05/09 17:24:38;;;;;;;6.40;2.60;;;23.00;54.30;;;;;;4889377;29;20199;-88
2022/05/09 17:27:13;;;;;;;3.47;2.47;;;23.00;54.40;;;;;;4916075;29;20047;-83
2022/05/09 17:29:40;;;;;;;4.28;2.45;;;23.00;54.80;;;;;;4934782;29;20032;-84
2022/05/09 17:32:12;;;;;;;3.22;2.95;;;22.90;54.90;;;;;;5031241;28;20041;-82
2022/05/09 17:34:43;;;;;;;2.97;2.75;;;22.80;56.30;;;;;;5034665;28;20057;-87
2022/05/09 17:37:16;;;;;;;3.00;2.60;;;22.50;56.50;;;;;;5015802;28;20510;-85
2022/05/09 17:39:49;;;;;;;3.55;2.72;;;22.50;56.70;;;;;;5033282;28;20025;-84
2022/05/09 17:42:18;;;;;;;3.90;3.50;;;22.50;57.10;;;;;;5017027;28;20025;-85
2022/05/09 17:44:44;;;;;;;6.18;2.78;;;22.50;56.90;;;;;;5016731;28;20056;-85
2022/05/09 17:47:10;;;;;;;3.65;2.83;;;22.50;57.10;;;;;;5016592;28;20045;-85
2022/05/09 17:49:36;;;;;;;4.57;2.65;;;22.50;56.90;;;;;;5016135;28;20097;-84
2022/05/09 17:52:03;;;;;;;3.95;2.78;;;22.50;56.70;;;;;;5012730;28;20064;-83
2022/05/09 17:54:28;;;;;;;3.05;2.50;;;22.50;56.80;;;;;;4996882;28;20037;-85
2022/05/09 17:57:00;;;;;;;8.65;2.50;;;22.50;56.80;;;;;;5006279;28;20022;-86
2022/05/09 17:59:30;;;;;;;4.88;2.67;;;22.50;57.00;;;;;;5016159;28;20041;-85
2022/05/09 18:02:02;;;;;;;3.10;2.78;;;22.40;56.90;;;;;;5016746;28;20484;-85
2022/05/09 18:04:29;;;;;;;6.43;2.60;;;22.40;57.00;;;;;;5016168;28;20040;-86
2022/05/09 18:06:59;;;;;;;4.18;2.20;;;22.40;57.00;;;;;;5016125;28;20399;-86
2022/05/09 18:09:31;;;;;;;4.13;2.45;;;22.30;57.30;;;;;;5034654;28;20478;-85
2022/05/09 18:12:11;;;;;;;4.57;2.40;;;22.30;57.50;;;;;;5017300;28;20033;-85
2022/05/09 18:14:43;;;;;;;9.13;2.85;;;22.20;57.60;;;;;;5016642;28;20037;-84
2022/05/09 18:17:40;;;;;;;4.15;2.53;;;22.20;57.60;;;;;;5017287;28;20033;-88
2022/05/09 18:20:48;;;;;;;5.15;2.80;;;22.20;57.80;;;;;;4955374;28;20043;-88
2022/05/09 18:24:05;;;;;;;6.88;3.40;;;22.10;57.80;;;;;;4952281;29;20023;-89
2022/05/09 18:31:09;;;;;;;3.95;2.75;;;22.00;57.90;;;;;;4968679;28;20057;-88
2022/05/09 18:34:19;;;;;;;4.15;2.80;;;21.90;58.00;;;;;;4957062;28;20039;-89
2022/05/09 18:41:07;;;;;;;3.90;3.22;;;21.80;58.40;;;;;;4973712;28;20093;-88
2022/05/09 18:44:36;;;;;;;4.65;2.80;;;21.70;58.50;;;;;;4971893;28;20035;-89
2022/05/09 18:47:56;;;;;;;5.00;3.10;;;21.60;58.90;;;;;;4915798;29;20115;-89
2022/05/09 18:54:27;;;;;;;5.38;3.05;;;21.50;59.10;;;;;;4970596;28;20093;-89
2022/05/09 21:55:33;;;;;;;5.93;4.97;;;17.30;66.90;;;;;;5023033;22;20048;-91
2022/05/09 21:57:59;;;;;;;7.25;4.78;;;17.30;67.10;;;;;;4962586;28;20042;-91
2022/05/09 22:00:28;;;;;;;6.80;5.10;;;17.30;67.50;;;;;;4974973;28;20026;-90
2022/05/09 22:02:59;;;;;;;6.22;4.63;;;17.30;67.70;;;;;;4979141;28;20027;-88
2022/05/09 22:05:28;;;;;;;7.75;5.38;;;17.30;68.20;;;;;;4962478;28;20019;-89
2022/05/09 22:07:55;;;;;;;7.30;5.60;;;17.20;68.10;;;;;;4994526;28;20007;-90
2022/05/09 22:10:25;;;;;;;9.50;5.97;;;17.20;68.20;;;;;;4974596;28;20039;-89
2022/05/09 22:12:51;;;;;;;7.15;5.85;;;17.20;68.30;;;;;;4966594;28;20022;-90
2022/05/09 22:15:16;;;;;;;7.30;6.28;;;17.20;68.40;;;;;;4978615;28;20576;-90
2022/05/09 22:17:45;;;;;;;7.43;5.88;;;17.10;68.60;;;;;;4979878;28;20081;-90
2022/05/09 22:20:11;;;;;;;8.02;6.60;;;17.10;68.90;;;;;;4977262;28;20074;-90
2022/05/09 22:22:37;;;;;;;7.60;6.65;;;17.10;68.90;;;;;;4959541;28;20022;-90
2022/05/09 22:25:04;;;;;;;9.57;6.47;;;17.00;69.00;;;;;;4961096;28;20041;-90
2022/05/09 22:27:30;;;;;;;9.68;6.25;;;17.00;69.20;;;;;;4961701;28;20117;-91
2022/05/09 22:29:55;;;;;;;9.05;6.35;;;17.00;69.30;;;;;;4962633;28;20026;-90
2022/05/09 22:32:23;;;;;;;6.80;6.10;;;16.90;69.40;;;;;;4961776;28;20019;-90
2022/05/09 22:34:49;;;;;;;8.95;6.55;;;16.90;69.60;;;;;;4961186;28;20023;-90
2022/05/09 22:37:36;;;;;;;6.95;6.25;;;16.90;69.70;;;;;;4967678;28;20278;-90
2022/05/09 22:40:14;;;;;;;7.20;6.50;;;16.80;69.80;;;;;;4980398;28;20030;-90
2022/05/09 22:42:40;;;;;;;14.02;7.10;;;16.80;69.90;;;;;;4976041;28;20031;-90
2022/05/09 22:45:11;;;;;;;9.52;7.03;;;16.80;69.80;;;;;;4975997;28;20121;-90
2022/05/09 22:47:37;;;;;;;8.30;6.88;;;16.70;70.10;;;;;;4995182;28;20109;-90
2022/05/09 22:50:04;;;;;;;8.23;6.47;;;16.70;70.20;;;;;;4979350;28;20022;-90
2022/05/09 22:52:29;;;;;;;8.63;6.88;;;16.60;70.30;;;;;;4979609;28;20109;-89
2022/05/09 22:54:55;;;;;;;7.65;6.93;;;16.50;70.40;;;;;;4985167;28;20074;-90
2022/05/09 22:57:30;;;;;;;7.90;6.90;;;16.50;70.70;;;;;;4960540;28;20054;-90
2022/05/09 22:59:57;;;;;;;8.95;7.20;;;16.50;71.00;;;;;;4960422;28;20082;-90
2022/05/09 23:02:28;;;;;;;12.63;7.60;;;16.40;70.90;;;;;;4969572;28;20022;-90
2022/05/09 23:04:54;;;;;;;10.65;7.15;;;16.40;71.10;;;;;;4975560;28;20035;-90
2022/05/09 23:07:20;;;;;;;8.07;7.20;;;16.40;71.00;;;;;;4960981;28;20022;-89
2022/05/09 23:09:46;;;;;;;8.70;7.68;;;16.40;71.20;;;;;;4960234;28;20358;-90
2022/05/09 23:12:17;;;;;;;8.57;7.75;;;16.40;71.10;;;;;;4981457;28;20415;-89
2022/05/09 23:14:46;;;;;;;9.27;7.22;;;16.30;71.40;;;;;;4977894;28;20023;-90
2022/05/09 23:17:32;;;;;;;10.30;8.52;;;16.30;71.50;;;;;;4960149;28;20026;-89
2022/05/09 23:19:58;;;;;;;10.65;8.40;;;16.20;72.10;;;;;;4979951;28;20039;-90
2022/05/09 23:22:24;;;;;;;11.25;8.05;;;16.20;71.60;;;;;;4967380;28;20030;-89
2022/05/09 23:25:00;;;;;;;;;;;;;;;;;;;;;
2022/05/09 23:27:27;;;;;;;9.50;8.50;;;16.10;71.80;;;;;;4981430;28;20066;-89
2022/05/09 23:29:58;;;;;;;12.20;8.82;;;16.10;71.90;;;;;;4969759;28;20023;-89
2022/05/09 23:32:24;;;;;;;9.82;8.82;;;16.00;72.10;;;;;;4969515;28;20139;-89
2022/05/09 23:34:57;;;;;;;10.68;8.13;;;16.00;72.20;;;;;;4968323;28;20145;-90
2022/05/09 23:37:24;;;;;;;10.38;8.30;;;15.90;72.30;;;;;;4979742;28;20026;-89
2022/05/09 23:39:50;;;;;;;10.45;9.10;;;15.90;72.30;;;;;;4976829;28;20027;-89
2022/05/09 23:42:16;;;;;;;9.98;7.97;;;15.90;72.40;;;;;;4960367;28;20113;-89
2022/05/09 23:44:42;;;;;;;11.98;8.43;;;15.80;72.40;;;;;;4959752;28;20157;-90
2022/05/09 23:47:15;;;;;;;12.80;9.48;;;15.80;72.50;;;;;;4977882;28;20038;-90
2022/05/09 23:49:42;;;;;;;10.80;9.27;;;15.70;72.90;;;;;;4979273;28;20049;-89
2022/05/09 23:52:08;;;;;;;10.75;9.65;;;15.70;72.80;;;;;;4963225;28;20343;-89
2022/05/09 23:54:34;;;;;;;14.30;8.52;;;15.60;73.00;;;;;;4958784;28;20214;-89
2022/05/09 23:57:00;;;;;;;10.23;9.15;;;15.50;73.00;;;;;;4979733;28;20122;-90
2022/05/09 23:59:25;;;;;;;12.30;9.02;;;15.60;73.00;;;;;;4966967;28;20037;-89
